Pineville, North Carolina
Current Conditions -  °F | °C
As of 2:52 PM on Tuesday 21 Oct 2014 (Local Time) from KCLT Reporting Station
Scattered Clouds Scattered Clouds  
Wind Chill: 73°   Ceiling: Unl
Heat Index: 73°   Visibility: 10mi
Dew Point: 44°   Wind: 6mph
Humidity: 35%   Direction: 310°NW
Pressure: 29.88"   Gusts: NA
Location:  35.08°N, 80.89°W
Report Text: KCLT 211852Z 31005KT 10SM SCT065 23/07 A2988 RMK AO2 SLP111 T02280067
Loading
Personal Weather Stations






























Interactive Weather Map
Tropical Storm Tracking
New forecast layout! Learn more

10-Day Weather Forecast

Advertisements
Track Severe Weather on mobile